sensor_id;sensor_type;location;lat;lon;timestamp;temperature;humidity
55719;DHT22;41623;46.104;19.656;2022-08-01T03:20:42;614.90;1152.00
55719;DHT22;41623;46.104;19.656;2022-08-01T03:23:10;614.70;1177.60
55719;DHT22;41623;46.104;19.656;2022-08-01T03:25:38;614.80;1152.00
55719;DHT22;41623;46.104;19.656;2022-08-01T03:28:06;614.80;1152.00
55719;DHT22;41623;46.104;19.656;2022-08-01T03:30:35;614.90;1126.40
55719;DHT22;41623;46.104;19.656;2022-08-01T03:33:02;615.30;1152.00
55719;DHT22;41623;46.104;19.656;2022-08-01T03:38:01;640.20;1100.80
55719;DHT22;41623;46.104;19.656;2022-08-01T03:48:10;615.10;1100.80
55719;DHT22;41623;46.104;19.656;2022-08-01T03:55:36;614.40;1152.00
55719;DHT22;41623;46.104;19.656;2022-08-01T03:58:03;589.70;1152.00
55719;DHT22;41623;46.104;19.656;2022-08-01T04:00:30;589.50;1152.00
55719;DHT22;41623;46.104;19.656;2022-08-01T04:02:56;589.30;1177.60
55719;DHT22;41623;46.104;19.656;2022-08-01T04:05:23;589.30;1177.60
55719;DHT22;41623;46.104;19.656;2022-08-01T04:07:50;589.40;1177.60
55719;DHT22;41623;46.104;19.656;2022-08-01T04:10:25;589.50;1177.60
55719;DHT22;41623;46.104;19.656;2022-08-01T04:15:17;614.60;1152.00
55719;DHT22;41623;46.104;19.656;2022-08-01T04:17:45;614.50;1177.60
55719;DHT22;41623;46.104;19.656;2022-08-01T05:36:28;640.20;1126.40
55719;DHT22;41623;46.104;19.656;2022-08-01T05:38:54;640.00;1152.00
55719;DHT22;41623;46.104;19.656;2022-08-01T06:15:38;640.60;1126.40
55719;DHT22;41623;46.104;19.656;2022-08-01T06:18:04;640.50;1152.00
55719;DHT22;41623;46.104;19.656;2022-08-01T06:20:30;640.30;1152.00
55719;DHT22;41623;46.104;19.656;2022-08-01T06:22:56;640.40;1152.00
55719;DHT22;41623;46.104;19.656;2022-08-01T06:25:22;640.20;1152.00
55719;DHT22;41623;46.104;19.656;2022-08-01T06:27:48;640.40;1152.00
55719;DHT22;41623;46.104;19.656;2022-08-01T06:30:15;640.40;1152.00
55719;DHT22;41623;46.104;19.656;2022-08-01T06:32:41;640.50;1152.00
55719;DHT22;41623;46.104;19.656;2022-08-01T06:35:07;640.50;1152.00
55719;DHT22;41623;46.104;19.656;2022-08-01T06:37:33;640.50;1152.00
55719;DHT22;41623;46.104;19.656;2022-08-01T06:40:07;640.60;1152.00
55719;DHT22;41623;46.104;19.656;2022-08-01T06:42:33;640.60;1152.00
55719;DHT22;41623;46.104;19.656;2022-08-01T06:45:03;640.60;1152.00
55719;DHT22;41623;46.104;19.656;2022-08-01T06:47:29;640.80;1126.40
55719;DHT22;41623;46.104;19.656;2022-08-01T06:49:55;640.70;1152.00
55719;DHT22;41623;46.104;19.656;2022-08-01T06:52:21;640.60;1152.00
55719;DHT22;41623;46.104;19.656;2022-08-01T06:54:46;640.70;1228.80
55719;DHT22;41623;46.104;19.656;2022-08-01T06:57:12;640.60;1152.00
55719;DHT22;41623;46.104;19.656;2022-08-01T06:59:38;640.60;1152.00
55719;DHT22;41623;46.104;19.656;2022-08-01T07:02:04;640.70;1126.40
55719;DHT22;41623;46.104;19.656;2022-08-01T07:26:28;666.20;1049.60
55719;DHT22;41623;46.104;19.656;2022-08-01T07:28:54;665.90;1049.60
55719;DHT22;41623;46.104;19.656;2022-08-01T07:31:19;665.90;1075.20
55719;DHT22;41623;46.104;19.656;2022-08-01T07:33:45;665.90;1305.60
55719;DHT22;41623;46.104;19.656;2022-08-01T07:36:11;665.90;1075.20
55719;DHT22;41623;46.104;19.656;2022-08-01T07:38:37;665.90;1075.20
55719;DHT22;41623;46.104;19.656;2022-08-01T07:41:03;665.90;1075.20
55719;DHT22;41623;46.104;19.656;2022-08-01T07:43:29;665.90;1049.60
55719;DHT22;41623;46.104;19.656;2022-08-01T07:45:54;665.90;1024.00
55719;DHT22;41623;46.104;19.656;2022-08-01T07:48:20;666.00;1049.60
55719;DHT22;41623;46.104;19.656;2022-08-01T09:46:50;691.70;1100.80
55719;DHT22;41623;46.104;19.656;2022-08-01T09:49:34;691.60;972.80
55719;DHT22;41623;46.104;19.656;2022-08-01T09:52:18;691.40;998.40
55719;DHT22;41623;46.104;19.656;2022-08-01T09:54:57;691.40;998.40
55719;DHT22;41623;46.104;19.656;2022-08-01T09:57:23;691.40;998.40
55719;DHT22;41623;46.104;19.656;2022-08-01T10:02:38;691.70;972.80
55719;DHT22;41623;46.104;19.656;2022-08-01T10:05:07;691.60;972.80
55719;DHT22;41623;46.104;19.656;2022-08-01T10:07:34;691.40;972.80
55719;DHT22;41623;46.104;19.656;2022-08-01T10:10:13;691.50;972.80
55719;DHT22;41623;46.104;19.656;2022-08-01T10:12:41;691.40;972.80
55719;DHT22;41623;46.104;19.656;2022-08-01T10:20:02;691.80;947.20
55719;DHT22;41623;46.104;19.656;2022-08-01T10:22:30;691.70;947.20
55719;DHT22;41623;46.104;19.656;2022-08-01T10:24:57;691.50;972.80
55719;DHT22;41623;46.104;19.656;2022-08-01T10:27:26;691.50;972.80
55719;DHT22;41623;46.104;19.656;2022-08-01T10:30:02;691.50;972.80
55719;DHT22;41623;46.104;19.656;2022-08-01T10:32:34;691.50;972.80
55719;DHT22;41623;46.104;19.656;2022-08-01T10:35:01;691.60;947.20
55719;DHT22;41623;46.104;19.656;2022-08-01T10:37:27;691.60;947.20
55719;DHT22;41623;46.104;19.656;2022-08-01T10:39:53;691.60;972.80
55719;DHT22;41623;46.104;19.656;2022-08-01T10:42:20;691.60;972.80
55719;DHT22;41623;46.104;19.656;2022-08-01T10:44:47;691.60;972.80
55719;DHT22;41623;46.104;19.656;2022-08-01T10:47:18;691.40;972.80
55719;DHT22;41623;46.104;19.656;2022-08-01T10:50:07;691.70;972.80
55719;DHT22;41623;46.104;19.656;2022-08-01T10:52:36;691.60;972.80
55719;DHT22;41623;46.104;19.656;2022-08-01T10:55:06;691.60;972.80
55719;DHT22;41623;46.104;19.656;2022-08-01T10:57:46;691.60;972.80
55719;DHT22;41623;46.104;19.656;2022-08-01T11:00:19;691.60;972.80
55719;DHT22;41623;46.104;19.656;2022-08-01T11:03:02;691.60;972.80
55719;DHT22;41623;46.104;19.656;2022-08-01T11:05:32;691.60;972.80
55719;DHT22;41623;46.104;19.656;2022-08-01T11:08:02;691.60;972.80
55719;DHT22;41623;46.104;19.656;2022-08-01T11:12:57;691.60;972.80
55719;DHT22;41623;46.104;19.656;2022-08-01T11:15:24;691.60;972.80
55719;DHT22;41623;46.104;19.656;2022-08-01T11:17:51;691.60;972.80
55719;DHT22;41623;46.104;19.656;2022-08-01T11:20:19;691.60;972.80
55719;DHT22;41623;46.104;19.656;2022-08-01T11:30:45;691.70;972.80
55719;DHT22;41623;46.104;19.656;2022-08-01T11:33:12;691.70;972.80
55719;DHT22;41623;46.104;19.656;2022-08-01T11:44:14;691.70;972.80
55719;DHT22;41623;46.104;19.656;2022-08-01T13:41:52;717.10;921.60
55719;DHT22;41623;46.104;19.656;2022-08-01T13:44:18;716.90;972.80
55719;DHT22;41623;46.104;19.656;2022-08-01T13:46:44;716.80;1049.60
55719;DHT22;41623;46.104;19.656;2022-08-01T13:49:12;716.80;972.80
55719;DHT22;41623;46.104;19.656;2022-08-01T14:28:16;717.10;896.00
55719;DHT22;41623;46.104;19.656;2022-08-01T14:30:42;716.90;896.00
55719;DHT22;41623;46.104;19.656;2022-08-01T14:33:09;692.10;896.00
55719;DHT22;41623;46.104;19.656;2022-08-01T14:35:35;716.80;921.60
55719;DHT22;41623;46.104;19.656;2022-08-01T14:38:01;692.10;921.60
55719;DHT22;41623;46.104;19.656;2022-08-01T14:40:27;692.10;921.60
55719;DHT22;41623;46.104;19.656;2022-08-01T14:42:52;692.00;921.60
55719;DHT22;41623;46.104;19.656;2022-08-01T14:45:19;716.80;947.20
55719;DHT22;41623;46.104;19.656;2022-08-01T14:47:45;692.10;896.00
55719;DHT22;41623;46.104;19.656;2022-08-01T14:50:13;716.80;947.20
55719;DHT22;41623;46.104;19.656;2022-08-01T14:52:40;716.80;921.60
55719;DHT22;41623;46.104;19.656;2022-08-01T14:55:08;692.10;921.60
55719;DHT22;41623;46.104;19.656;2022-08-01T14:57:35;692.10;896.00
55719;DHT22;41623;46.104;19.656;2022-08-01T15:00:02;692.10;896.00
55719;DHT22;41623;46.104;19.656;2022-08-01T15:02:29;716.80;896.00
55719;DHT22;41623;46.104;19.656;2022-08-01T15:04:54;716.90;921.60
55719;DHT22;41623;46.104;19.656;2022-08-01T15:07:20;716.90;921.60
55719;DHT22;41623;46.104;19.656;2022-08-01T15:09:46;716.90;896.00
55719;DHT22;41623;46.104;19.656;2022-08-01T15:12:12;716.80;896.00
55719;DHT22;41623;46.104;19.656;2022-08-01T15:14:38;716.80;921.60
55719;DHT22;41623;46.104;19.656;2022-08-01T15:17:31;716.80;921.60
55719;DHT22;41623;46.104;19.656;2022-08-01T15:19:59;716.80;921.60
55719;DHT22;41623;46.104;19.656;2022-08-01T15:22:26;716.80;921.60
55719;DHT22;41623;46.104;19.656;2022-08-01T15:24:53;692.10;896.00
55719;DHT22;41623;46.104;19.656;2022-08-01T15:27:20;716.80;921.60
55719;DHT22;41623;46.104;19.656;2022-08-01T15:29:47;692.10;896.00
55719;DHT22;41623;46.104;19.656;2022-08-01T15:32:13;716.90;947.20
55719;DHT22;41623;46.104;19.656;2022-08-01T15:34:39;716.80;921.60
55719;DHT22;41623;46.104;19.656;2022-08-01T15:37:06;716.80;921.60
55719;DHT22;41623;46.104;19.656;2022-08-01T15:39:33;716.80;921.60
55719;DHT22;41623;46.104;19.656;2022-08-01T15:42:02;716.80;921.60
55719;DHT22;41623;46.104;19.656;2022-08-01T15:44:29;716.80;921.60
55719;DHT22;41623;46.104;19.656;2022-08-01T15:46:55;716.90;921.60
55719;DHT22;41623;46.104;19.656;2022-08-01T15:49:21;716.90;921.60
55719;DHT22;41623;46.104;19.656;2022-08-01T15:51:48;716.90;947.20
55719;DHT22;41623;46.104;19.656;2022-08-01T15:54:18;716.90;947.20
55719;DHT22;41623;46.104;19.656;2022-08-01T15:56:44;716.90;947.20
55719;DHT22;41623;46.104;19.656;2022-08-01T15:59:10;716.90;921.60
55719;DHT22;41623;46.104;19.656;2022-08-01T16:01:36;716.90;921.60
55719;DHT22;41623;46.104;19.656;2022-08-01T16:04:03;716.90;921.60
55719;DHT22;41623;46.104;19.656;2022-08-01T16:06:30;716.90;1049.60
55719;DHT22;41623;46.104;19.656;2022-08-01T16:08:56;716.90;947.20
55719;DHT22;41623;46.104;19.656;2022-08-01T16:11:22;716.90;947.20
55719;DHT22;41623;46.104;19.656;2022-08-01T16:13:49;716.90;947.20
55719;DHT22;41623;46.104;19.656;2022-08-01T16:16:15;716.90;947.20
55719;DHT22;41623;46.104;19.656;2022-08-01T16:18:42;716.90;947.20
55719;DHT22;41623;46.104;19.656;2022-08-01T16:45:35;717.30;921.60
55719;DHT22;41623;46.104;19.656;2022-08-01T16:48:01;717.10;921.60
55719;DHT22;41623;46.104;19.656;2022-08-01T16:50:27;716.90;947.20
55719;DHT22;41623;46.104;19.656;2022-08-01T16:52:53;716.90;947.20
55719;DHT22;41623;46.104;19.656;2022-08-01T16:55:19;716.90;947.20
55719;DHT22;41623;46.104;19.656;2022-08-01T16:57:47;716.90;947.20
55719;DHT22;41623;46.104;19.656;2022-08-01T17:00:14;716.90;947.20
55719;DHT22;41623;46.104;19.656;2022-08-01T17:02:41;716.90;947.20
55719;DHT22;41623;46.104;19.656;2022-08-01T17:05:08;716.90;947.20
55719;DHT22;41623;46.104;19.656;2022-08-01T17:07:34;716.90;947.20
55719;DHT22;41623;46.104;19.656;2022-08-01T17:10:01;716.90;947.20
55719;DHT22;41623;46.104;19.656;2022-08-01T17:12:27;716.90;972.80
55719;DHT22;41623;46.104;19.656;2022-08-01T17:14:54;716.90;947.20
55719;DHT22;41623;46.104;19.656;2022-08-01T17:17:21;716.80;947.20
55719;DHT22;41623;46.104;19.656;2022-08-01T17:19:48;716.90;972.80
55719;DHT22;41623;46.104;19.656;2022-08-01T17:22:14;716.90;972.80
55719;DHT22;41623;46.104;19.656;2022-08-01T17:24:40;716.90;972.80
55719;DHT22;41623;46.104;19.656;2022-08-01T17:27:06;692.10;947.20
55719;DHT22;41623;46.104;19.656;2022-08-01T17:29:32;716.80;972.80
55719;DHT22;41623;46.104;19.656;2022-08-01T17:31:58;716.80;972.80
55719;DHT22;41623;46.104;19.656;2022-08-01T17:34:24;716.80;972.80
55719;DHT22;41623;46.104;19.656;2022-08-01T17:36:50;716.80;972.80
55719;DHT22;41623;46.104;19.656;2022-08-01T17:39:16;716.90;972.80
55719;DHT22;41623;46.104;19.656;2022-08-01T17:41:41;716.80;972.80
55719;DHT22;41623;46.104;19.656;2022-08-01T17:44:08;716.90;972.80
55719;DHT22;41623;46.104;19.656;2022-08-01T17:46:34;716.80;972.80
55719;DHT22;41623;46.104;19.656;2022-08-01T17:48:59;716.80;972.80
55719;DHT22;41623;46.104;19.656;2022-08-01T17:51:28;716.80;972.80
55719;DHT22;41623;46.104;19.656;2022-08-01T17:53:55;716.80;972.80
55719;DHT22;41623;46.104;19.656;2022-08-01T17:56:21;716.80;972.80
55719;DHT22;41623;46.104;19.656;2022-08-01T17:58:47;716.80;972.80
55719;DHT22;41623;46.104;19.656;2022-08-01T18:01:14;716.80;972.80
55719;DHT22;41623;46.104;19.656;2022-08-01T18:03:41;716.80;972.80
55719;DHT22;41623;46.104;19.656;2022-08-01T18:06:07;716.80;972.80
55719;DHT22;41623;46.104;19.656;2022-08-01T18:08:33;716.80;972.80
55719;DHT22;41623;46.104;19.656;2022-08-01T18:10:59;716.80;972.80
55719;DHT22;41623;46.104;19.656;2022-08-01T18:13:25;716.80;972.80
55719;DHT22;41623;46.104;19.656;2022-08-01T18:15:51;716.80;972.80
55719;DHT22;41623;46.104;19.656;2022-08-01T18:18:17;716.80;972.80
55719;DHT22;41623;46.104;19.656;2022-08-01T18:20:45;716.80;972.80
55719;DHT22;41623;46.104;19.656;2022-08-01T18:23:11;716.80;972.80
55719;DHT22;41623;46.104;19.656;2022-08-01T18:25:38;716.80;972.80
55719;DHT22;41623;46.104;19.656;2022-08-01T18:28:04;716.80;972.80
55719;DHT22;41623;46.104;19.656;2022-08-01T18:30:30;716.90;972.80
55719;DHT22;41623;46.104;19.656;2022-08-01T18:32:56;716.90;972.80
55719;DHT22;41623;46.104;19.656;2022-08-01T18:35:22;716.90;972.80
55719;DHT22;41623;46.104;19.656;2022-08-01T18:37:49;716.90;972.80
55719;DHT22;41623;46.104;19.656;2022-08-01T18:40:16;716.90;972.80
55719;DHT22;41623;46.104;19.656;2022-08-01T18:42:42;716.90;972.80
55719;DHT22;41623;46.104;19.656;2022-08-01T18:45:08;716.90;972.80
55719;DHT22;41623;46.104;19.656;2022-08-01T18:47:34;716.90;972.80
55719;DHT22;41623;46.104;19.656;2022-08-01T18:50:00;716.90;972.80
55719;DHT22;41623;46.104;19.656;2022-08-01T18:52:26;716.90;972.80
55719;DHT22;41623;46.104;19.656;2022-08-01T18:54:52;716.90;972.80
55719;DHT22;41623;46.104;19.656;2022-08-01T18:57:18;716.90;972.80
55719;DHT22;41623;46.104;19.656;2022-08-01T18:59:45;716.90;972.80
55719;DHT22;41623;46.104;19.656;2022-08-01T19:02:11;716.90;972.80
55719;DHT22;41623;46.104;19.656;2022-08-01T19:04:36;716.90;972.80
55719;DHT22;41623;46.104;19.656;2022-08-01T19:07:02;716.80;972.80
55719;DHT22;41623;46.104;19.656;2022-08-01T19:09:28;716.90;972.80
55719;DHT22;41623;46.104;19.656;2022-08-01T19:11:54;716.80;972.80
55719;DHT22;41623;46.104;19.656;2022-08-01T19:14:20;716.90;972.80
55719;DHT22;41623;46.104;19.656;2022-08-01T19:16:46;692.10;947.20
55719;DHT22;41623;46.104;19.656;2022-08-01T19:19:12;716.90;998.40
55719;DHT22;41623;46.104;19.656;2022-08-01T19:21:38;716.80;998.40
55719;DHT22;41623;46.104;19.656;2022-08-01T19:24:05;716.90;998.40
55719;DHT22;41623;46.104;19.656;2022-08-01T19:26:51;716.80;998.40
55719;DHT22;41623;46.104;19.656;2022-08-01T19:29:21;716.80;1024.00
55719;DHT22;41623;46.104;19.656;2022-08-01T19:31:48;716.80;972.80
55719;DHT22;41623;46.104;19.656;2022-08-01T19:34:14;716.80;972.80
55719;DHT22;41623;46.104;19.656;2022-08-01T19:36:44;716.80;972.80
55719;DHT22;41623;46.104;19.656;2022-08-01T19:39:13;716.80;972.80
55719;DHT22;41623;46.104;19.656;2022-08-01T19:41:44;716.80;998.40
55719;DHT22;41623;46.104;19.656;2022-08-01T19:44:12;716.90;998.40
55719;DHT22;41623;46.104;19.656;2022-08-01T19:46:39;716.80;1024.00
55719;DHT22;41623;46.104;19.656;2022-08-01T19:49:05;716.80;998.40
55719;DHT22;41623;46.104;19.656;2022-08-01T19:51:32;716.80;1024.00
55719;DHT22;41623;46.104;19.656;2022-08-01T19:54:05;716.80;1024.00
55719;DHT22;41623;46.104;19.656;2022-08-01T19:56:36;716.80;972.80
55719;DHT22;41623;46.104;19.656;2022-08-01T19:59:05;716.80;972.80
55719;DHT22;41623;46.104;19.656;2022-08-01T20:01:35;716.80;1024.00
55719;DHT22;41623;46.104;19.656;2022-08-01T20:04:02;716.80;972.80
55719;DHT22;41623;46.104;19.656;2022-08-01T20:06:31;716.80;1024.00
55719;DHT22;41623;46.104;19.656;2022-08-01T20:09:00;716.80;1049.60
55719;DHT22;41623;46.104;19.656;2022-08-01T20:11:26;716.80;1049.60
55719;DHT22;41623;46.104;19.656;2022-08-01T20:13:53;716.80;1049.60
55719;DHT22;41623;46.104;19.656;2022-08-01T20:16:19;716.80;1049.60
55719;DHT22;41623;46.104;19.656;2022-08-01T20:18:45;716.80;1049.60
55719;DHT22;41623;46.104;19.656;2022-08-01T20:21:12;716.80;1049.60
55719;DHT22;41623;46.104;19.656;2022-08-01T20:23:39;716.80;1049.60
55719;DHT22;41623;46.104;19.656;2022-08-01T20:26:06;716.80;1075.20
55719;DHT22;41623;46.104;19.656;2022-08-01T20:28:38;716.80;1075.20
55719;DHT22;41623;46.104;19.656;2022-08-01T20:31:08;716.80;998.40
55719;DHT22;41623;46.104;19.656;2022-08-01T20:33:39;716.80;1024.00
55719;DHT22;41623;46.104;19.656;2022-08-01T20:36:05;716.80;1024.00
55719;DHT22;41623;46.104;19.656;2022-08-01T20:38:32;716.80;1049.60
55719;DHT22;41623;46.104;19.656;2022-08-01T20:41:01;716.80;1075.20
55719;DHT22;41623;46.104;19.656;2022-08-01T20:43:28;716.80;1049.60
55719;DHT22;41623;46.104;19.656;2022-08-01T20:45:55;716.80;1075.20
55719;DHT22;41623;46.104;19.656;2022-08-01T20:48:21;716.80;1075.20
55719;DHT22;41623;46.104;19.656;2022-08-01T20:50:48;716.80;1075.20
55719;DHT22;41623;46.104;19.656;2022-08-01T20:53:35;716.80;1024.00
55719;DHT22;41623;46.104;19.656;2022-08-01T21:01:46;716.80;1075.20
55719;DHT22;41623;46.104;19.656;2022-08-01T21:09:41;716.80;1075.20
55719;DHT22;41623;46.104;19.656;2022-08-01T21:12:13;716.80;1049.60
55719;DHT22;41623;46.104;19.656;2022-08-01T21:14:54;716.80;1075.20
55719;DHT22;41623;46.104;19.656;2022-08-01T21:20:27;716.80;1024.00
55719;DHT22;41623;46.104;19.656;2022-08-01T21:23:08;716.80;1075.20
55719;DHT22;41623;46.104;19.656;2022-08-01T21:25:35;716.80;1049.60
55719;DHT22;41623;46.104;19.656;2022-08-01T21:28:01;692.10;998.40
55719;DHT22;41623;46.104;19.656;2022-08-01T21:30:32;692.00;998.40
55719;DHT22;41623;46.104;19.656;2022-08-01T21:33:01;692.00;1024.00
55719;DHT22;41623;46.104;19.656;2022-08-01T21:35:28;692.10;1024.00
55719;DHT22;41623;46.104;19.656;2022-08-01T21:37:57;692.10;1075.20
55719;DHT22;41623;46.104;19.656;2022-08-01T21:40:24;692.10;1075.20
55719;DHT22;41623;46.104;19.656;2022-08-01T21:42:51;692.10;1049.60
55719;DHT22;41623;46.104;19.656;2022-08-01T21:45:22;692.10;1049.60
55719;DHT22;41623;46.104;19.656;2022-08-01T21:47:49;692.10;1024.00
55719;DHT22;41623;46.104;19.656;2022-08-01T21:50:15;692.10;1049.60
55719;DHT22;41623;46.104;19.656;2022-08-01T21:52:42;692.10;1024.00
55719;DHT22;41623;46.104;19.656;2022-08-01T21:55:26;716.80;1100.80
55719;DHT22;41623;46.104;19.656;2022-08-01T22:00:24;716.80;1100.80
55719;DHT22;41623;46.104;19.656;2022-08-01T22:02:54;692.10;1024.00
55719;DHT22;41623;46.104;19.656;2022-08-01T22:05:28;692.10;1024.00
55719;DHT22;41623;46.104;19.656;2022-08-01T22:07:59;692.10;1049.60
55719;DHT22;41623;46.104;19.656;2022-08-01T22:10:27;692.10;998.40
55719;DHT22;41623;46.104;19.656;2022-08-01T22:12:53;692.10;998.40
55719;DHT22;41623;46.104;19.656;2022-08-01T22:15:23;692.10;1024.00
55719;DHT22;41623;46.104;19.656;2022-08-01T22:17:50;692.10;1024.00
55719;DHT22;41623;46.104;19.656;2022-08-01T22:20:24;692.10;1024.00
55719;DHT22;41623;46.104;19.656;2022-08-01T22:22:52;692.10;998.40
55719;DHT22;41623;46.104;19.656;2022-08-01T22:25:22;692.10;998.40
55719;DHT22;41623;46.104;19.656;2022-08-01T22:27:49;692.10;972.80
55719;DHT22;41623;46.104;19.656;2022-08-01T22:30:15;692.10;1024.00
55719;DHT22;41623;46.104;19.656;2022-08-01T22:32:43;692.10;1024.00
55719;DHT22;41623;46.104;19.656;2022-08-01T22:35:13;692.10;998.40
55719;DHT22;41623;46.104;19.656;2022-08-01T22:37:39;692.10;998.40
55719;DHT22;41623;46.104;19.656;2022-08-01T22:40:11;692.10;1024.00
55719;DHT22;41623;46.104;19.656;2022-08-01T22:42:45;692.10;998.40
55719;DHT22;41623;46.104;19.656;2022-08-01T22:48:15;692.10;998.40
55719;DHT22;41623;46.104;19.656;2022-08-01T22:50:49;692.10;998.40
55719;DHT22;41623;46.104;19.656;2022-08-01T22:55:44;692.10;998.40
55719;DHT22;41623;46.104;19.656;2022-08-01T22:58:14;692.10;998.40
55719;DHT22;41623;46.104;19.656;2022-08-01T23:00:42;692.10;998.40
55719;DHT22;41623;46.104;19.656;2022-08-01T23:03:29;692.10;998.40
55719;DHT22;41623;46.104;19.656;2022-08-01T23:06:10;692.10;998.40
55719;DHT22;41623;46.104;19.656;2022-08-01T23:08:37;692.10;972.80
55719;DHT22;41623;46.104;19.656;2022-08-01T23:11:05;692.10;998.40
55719;DHT22;41623;46.104;19.656;2022-08-01T23:13:32;692.10;998.40
55719;DHT22;41623;46.104;19.656;2022-08-01T23:15:59;692.10;998.40
55719;DHT22;41623;46.104;19.656;2022-08-01T23:18:26;692.10;998.40
55719;DHT22;41623;46.104;19.656;2022-08-01T23:21:00;692.10;998.40
55719;DHT22;41623;46.104;19.656;2022-08-01T23:23:30;692.10;998.40
55719;DHT22;41623;46.104;19.656;2022-08-01T23:25:57;692.10;998.40
55719;DHT22;41623;46.104;19.656;2022-08-01T23:28:23;692.10;998.40
55719;DHT22;41623;46.104;19.656;2022-08-01T23:30:49;692.10;998.40
55719;DHT22;41623;46.104;19.656;2022-08-01T23:33:16;692.10;998.40
55719;DHT22;41623;46.104;19.656;2022-08-01T23:35:42;692.00;998.40
55719;DHT22;41623;46.104;19.656;2022-08-01T23:38:08;692.10;998.40
55719;DHT22;41623;46.104;19.656;2022-08-01T23:40:36;692.10;998.40
55719;DHT22;41623;46.104;19.656;2022-08-01T23:43:04;692.10;998.40
55719;DHT22;41623;46.104;19.656;2022-08-01T23:45:31;692.10;1024.00
55719;DHT22;41623;46.104;19.656;2022-08-01T23:47:57;692.10;998.40
55719;DHT22;41623;46.104;19.656;2022-08-01T23:50:23;692.00;998.40
55719;DHT22;41623;46.104;19.656;2022-08-01T23:52:52;692.10;998.40
55719;DHT22;41623;46.104;19.656;2022-08-01T23:55:19;692.10;1024.00
55719;DHT22;41623;46.104;19.656;2022-08-01T23:57:45;692.10;998.40
